Caledon, Canada
Current Conditions -  °F | °C
As of 5:00 AM on Saturday 22 Nov 2014 (Local Time) from CYYZ Reporting Station
Overcast Overcast  
Wind Chill: 25°   Ceiling: 14000
Heat Index: 25°   Visibility: 15mi
Dew Point: 18°   Wind: 3mph
Humidity: 74%   Direction: 200°SSW
Pressure: 30.22"   Gusts: NA
Location:  43.87°N, 80°W
Report Text: CYYZ 221000Z 20003KT 15SM OVC140 M04/M08 A3022 RMK AC8 SLP244
Loading
Personal Weather Stations






























Interactive Weather Map New forecast layout! Learn more

10-Day Weather Forecast

Advertisements
Track Severe Weather on mobile